createdAt,value
2023-03-26T00:04:49.332Z,75.74
2023-03-26T00:09:47.904Z,75.51
2023-03-26T00:14:47.890Z,75.53
2023-03-26T00:19:48.727Z,75.89
2023-03-26T00:24:50.409Z,76.08
2023-03-26T00:29:47.846Z,76.18
2023-03-26T00:34:51.414Z,76.14
2023-03-26T00:39:48.084Z,76.17
2023-03-26T00:44:50.168Z,76.46
2023-03-26T00:49:48.185Z,76.29
2023-03-26T00:54:51.463Z,76.21
2023-03-26T00:59:48.752Z,76.26
2023-03-26T01:04:54.512Z,76.36
2023-03-26T01:09:49.979Z,76.28
2023-03-26T01:14:52.041Z,76.30
2023-03-26T01:19:52.140Z,76.51
2023-03-26T01:24:52.194Z,76.07
2023-03-26T01:29:53.175Z,75.97
2023-03-26T01:34:58.095Z,76.18
2023-03-26T01:39:52.422Z,76.33
2023-03-26T01:41:25.839Z,76.33
2023-03-26T01:44:54.300Z,76.41
2023-03-26T01:49:48.005Z,76.64
2023-03-26T01:54:49.461Z,76.72
2023-03-26T01:57:28.298Z,76.72
2023-03-26T02:00:00.794Z,76.65
2023-03-26T02:04:53.416Z,77.11
2023-03-26T02:09:52.692Z,76.96
2023-03-26T02:14:48.321Z,77.31
2023-03-26T02:19:47.934Z,77.31
2023-03-26T02:24:47.863Z,76.97
2023-03-26T02:29:49.398Z,77.32
2023-03-26T02:30:56.720Z,77.32
2023-03-26T02:34:50.288Z,77.15
2023-03-26T02:39:47.776Z,77.59
2023-03-26T02:44:47.940Z,77.72
2023-03-26T02:49:47.859Z,78.29
2023-03-26T02:54:47.782Z,78.17
2023-03-26T02:59:49.517Z,78.01
2023-03-26T03:04:47.755Z,77.81
2023-03-26T03:09:50.087Z,77.76
2023-03-26T03:14:47.736Z,77.36
2023-03-26T03:19:47.847Z,77.13
2023-03-26T03:24:47.953Z,76.98
2023-03-26T03:29:47.718Z,76.79
2023-03-26T03:34:49.842Z,76.38
2023-03-26T03:39:48.010Z,75.97
2023-03-26T03:44:49.349Z,75.97
2023-03-26T03:49:48.257Z,75.92
2023-03-26T03:54:48.544Z,75.99
2023-03-26T03:59:48.537Z,76.04
2023-03-26T04:04:49.275Z,75.78
2023-03-26T04:09:47.918Z,76.03
2023-03-26T04:14:48.021Z,75.73
2023-03-26T04:19:49.268Z,75.53
2023-03-26T04:24:48.688Z,75.31
2023-03-26T04:29:49.354Z,75.26
2023-03-26T04:34:47.787Z,75.02
2023-03-26T04:39:49.213Z,74.88
2023-03-26T04:44:49.899Z,74.71
2023-03-26T04:49:47.850Z,74.44
2023-03-26T04:54:48.216Z,74.57
2023-03-26T04:59:47.650Z,75.97
2023-03-26T05:04:48.985Z,76.67
2023-03-26T05:09:47.930Z,76.49
2023-03-26T05:14:47.759Z,76.38
2023-03-26T05:17:41.957Z,76.38
2023-03-26T05:19:47.839Z,76.27
2023-03-26T05:24:48.315Z,76.31
2023-03-26T05:29:47.638Z,75.84
2023-03-26T05:34:47.729Z,75.36
2023-03-26T05:39:52.201Z,74.95
2023-03-26T05:44:47.795Z,75.03
2023-03-26T05:49:47.790Z,74.66
2023-03-26T05:54:48.009Z,73.98
2023-03-26T05:59:47.691Z,73.20
2023-03-26T06:04:47.779Z,72.82
2023-03-26T06:09:47.962Z,72.10
2023-03-26T06:14:47.817Z,70.50
2023-03-26T06:19:47.730Z,70.69
2023-03-26T06:24:48.038Z,70.66
2023-03-26T06:29:48.065Z,70.91
2023-03-26T06:34:47.983Z,71.23
2023-03-26T06:39:47.861Z,72.34
2023-03-26T06:44:47.587Z,74.03
2023-03-26T06:49:47.695Z,74.19
2023-03-26T06:54:47.771Z,75.35
2023-03-26T06:59:47.949Z,75.25
2023-03-26T07:04:47.608Z,75.13
2023-03-26T07:09:47.799Z,74.03
2023-03-26T07:14:47.713Z,73.17
2023-03-26T07:19:48.330Z,70.03
2023-03-26T07:24:48.279Z,68.36
2023-03-26T07:29:51.770Z,64.56
2023-03-26T07:34:54.098Z,61.57
2023-03-26T07:39:56.793Z,59.68
2023-03-26T07:44:53.486Z,62.37
2023-03-26T07:49:48.281Z,63.87
2023-03-26T07:54:48.489Z,65.42
2023-03-26T07:59:52.048Z,66.64
2023-03-26T08:04:59.107Z,67.13
2023-03-26T08:09:59.045Z,67.60
2023-03-26T08:14:56.645Z,67.34
2023-03-26T08:20:01.348Z,66.70
2023-03-26T08:25:06.228Z,66.20
2023-03-26T08:29:54.601Z,65.71
2023-03-26T08:34:47.798Z,66.64
2023-03-26T08:39:47.783Z,67.21
2023-03-26T08:45:07.500Z,67.47
2023-03-26T08:50:07.497Z,67.20
2023-03-26T08:55:07.375Z,67.58
2023-03-26T08:59:57.916Z,68.92
2023-03-26T09:05:07.400Z,69.64
2023-03-26T09:10:08.265Z,69.40
2023-03-26T09:15:07.360Z,67.34
2023-03-26T09:19:58.440Z,67.54
2023-03-26T09:25:07.000Z,63.69
2023-03-26T09:30:07.844Z,61.07
2023-03-26T09:35:07.394Z,59.39
2023-03-26T09:39:59.878Z,58.39
2023-03-26T09:45:09.441Z,58.79
2023-03-26T09:49:52.514Z,59.92
2023-03-26T09:55:07.666Z,61.81
2023-03-26T10:00:01.145Z,62.76
2023-03-26T10:05:03.952Z,62.46
2023-03-26T10:09:55.906Z,61.33
2023-03-26T10:14:57.600Z,58.51
2023-03-26T10:19:59.758Z,61.91
2023-03-26T10:25:04.870Z,63.45
2023-03-26T10:30:03.265Z,62.17
2023-03-26T10:34:55.734Z,58.76
2023-03-26T10:40:09.227Z,54.31
2023-03-26T10:44:59.373Z,49.27
2023-03-26T10:49:58.629Z,50.57
2023-03-26T10:54:54.328Z,53.58
2023-03-26T10:59:47.489Z,56.29
2023-03-26T11:04:54.781Z,57.99
2023-03-26T11:09:57.299Z,55.80
2023-03-26T11:14:55.799Z,55.54
2023-03-26T11:19:57.199Z,55.25
2023-03-26T11:24:59.039Z,56.48
2023-03-26T11:29:55.762Z,57.83
2023-03-26T11:34:57.351Z,58.69
2023-03-26T11:39:51.944Z,59.82
2023-03-26T11:44:52.675Z,60.79
2023-03-26T11:49:51.710Z,61.33
2023-03-26T11:54:47.402Z,60.18
2023-03-26T11:59:56.982Z,59.06
2023-03-26T12:04:54.249Z,58.91
2023-03-26T12:09:49.650Z,60.13
2023-03-26T12:14:47.595Z,61.18
2023-03-26T12:19:47.533Z,61.92
2023-03-26T12:25:00.784Z,60.64
2023-03-26T12:29:50.409Z,60.24
2023-03-26T12:34:47.588Z,60.33
2023-03-26T12:40:09.177Z,58.79
2023-03-26T12:44:58.762Z,56.11
2023-03-26T12:49:50.254Z,54.69
2023-03-26T12:54:56.304Z,52.93
2023-03-26T13:00:07.793Z,52.27
2023-03-26T13:05:06.306Z,48.96
2023-03-26T13:10:03.188Z,48.78
2023-03-26T13:15:02.302Z,50.26
2023-03-26T13:19:56.723Z,49.37
2023-03-26T13:24:53.430Z,49.22
2023-03-26T13:29:56.919Z,49.32
2023-03-26T13:35:03.282Z,49.24
2023-03-26T13:39:56.663Z,50.22
2023-03-26T13:45:04.493Z,50.93
2023-03-26T13:49:51.446Z,51.55
2023-03-26T13:54:51.657Z,49.53
2023-03-26T13:59:51.595Z,48.58
2023-03-26T14:04:53.160Z,49.03
2023-03-26T14:09:53.565Z,48.52
2023-03-26T14:14:51.550Z,49.11
2023-03-26T14:20:07.319Z,50.50
2023-03-26T14:24:57.834Z,50.94
2023-03-26T14:30:02.809Z,50.14
2023-03-26T14:35:04.024Z,48.28
2023-03-26T14:40:13.771Z,49.16
2023-03-26T14:45:04.882Z,50.45
2023-03-26T14:50:07.339Z,51.04
2023-03-26T14:54:51.773Z,50.96
2023-03-26T15:00:13.488Z,50.79
2023-03-26T15:05:07.165Z,51.18
2023-03-26T15:10:07.466Z,51.08
2023-03-26T15:15:06.088Z,51.59
2023-03-26T15:20:08.048Z,52.09
2023-03-26T15:25:07.307Z,52.71
2023-03-26T15:30:07.654Z,53.67
2023-03-26T15:35:08.731Z,53.52
2023-03-26T15:40:07.074Z,53.43
2023-03-26T15:44:54.379Z,53.55
2023-03-26T15:49:54.052Z,53.67
2023-03-26T15:54:56.531Z,54.18
2023-03-26T15:59:56.402Z,54.21
2023-03-26T16:04:52.963Z,53.98
2023-03-26T16:09:59.107Z,53.63
2023-03-26T16:15:10.669Z,53.74
2023-03-26T16:19:50.935Z,53.42
2023-03-26T16:25:27.202Z,53.61
2023-03-26T16:30:08.484Z,54.09
2023-03-26T16:34:50.264Z,54.26
2023-03-26T16:39:48.242Z,54.69
2023-03-26T16:44:56.355Z,55.54
2023-03-26T16:50:08.865Z,56.10
2023-03-26T16:54:53.173Z,56.70
2023-03-26T17:00:07.553Z,56.79
2023-03-26T17:04:51.422Z,56.99
2023-03-26T17:09:58.241Z,57.19
2023-03-26T17:14:55.416Z,57.35
2023-03-26T17:19:53.590Z,57.46
2023-03-26T17:24:52.984Z,57.65
2023-03-26T17:29:59.756Z,57.79
2023-03-26T17:34:57.243Z,57.95
2023-03-26T17:40:11.159Z,58.33
2023-03-26T17:40:40.070Z,58.33
2023-03-26T17:44:49.395Z,58.44
2023-03-26T17:49:52.249Z,58.64
2023-03-26T17:54:51.489Z,58.88
2023-03-26T17:59:50.142Z,59.03
2023-03-26T18:04:51.942Z,59.26
2023-03-26T18:09:58.250Z,59.44
2023-03-26T18:14:59.610Z,59.72
2023-03-26T18:19:50.529Z,59.83
2023-03-26T18:24:48.123Z,59.99
2023-03-26T18:30:02.002Z,60.10
2023-03-26T18:34:51.504Z,60.27
2023-03-26T18:39:58.449Z,60.53
2023-03-26T18:44:49.410Z,60.81
2023-03-26T18:49:53.041Z,61.13
2023-03-26T18:54:49.991Z,61.42
2023-03-26T18:59:49.552Z,61.91
2023-03-26T19:04:49.912Z,62.15
2023-03-26T19:09:48.600Z,62.60
2023-03-26T19:14:53.964Z,62.90
2023-03-26T19:19:48.780Z,63.24
2023-03-26T19:24:52.062Z,63.52
2023-03-26T19:29:48.045Z,63.65
2023-03-26T19:34:47.503Z,63.83
2023-03-26T19:39:50.242Z,64.07
2023-03-26T19:44:47.249Z,64.33
2023-03-26T19:49:52.229Z,64.62
2023-03-26T19:54:59.254Z,65.18
2023-03-26T19:59:50.933Z,65.45
2023-03-26T20:04:47.619Z,65.85
2023-03-26T20:09:48.423Z,66.38
2023-03-26T20:14:47.821Z,66.73
2023-03-26T20:19:47.222Z,66.79
2023-03-26T20:24:47.493Z,67.33
2023-03-26T20:29:47.277Z,67.65
2023-03-26T20:34:48.623Z,67.63
2023-03-26T20:39:47.280Z,68.24
2023-03-26T20:44:47.158Z,68.42
2023-03-26T20:49:47.034Z,68.63
2023-03-26T20:54:48.301Z,68.54
2023-03-26T20:59:47.026Z,68.93
2023-03-26T21:04:47.435Z,69.05
2023-03-26T21:09:47.764Z,69.18
2023-03-26T21:14:47.496Z,69.15
2023-03-26T21:19:49.204Z,68.89
2023-03-26T21:25:00.186Z,69.14
2023-03-26T21:29:47.321Z,68.79
2023-03-26T21:34:57.507Z,69.01
2023-03-26T21:39:47.655Z,69.29
2023-03-26T21:44:47.671Z,68.98
2023-03-26T21:49:47.218Z,69.19
2023-03-26T21:54:47.878Z,69.42
2023-03-26T21:59:57.678Z,69.38
2023-03-26T22:04:51.732Z,69.45
2023-03-26T22:09:47.745Z,69.53
2023-03-26T22:14:46.973Z,69.48
2023-03-26T22:19:47.021Z,69.64
2023-03-26T22:24:47.266Z,69.87
2023-03-26T22:29:47.248Z,70.01
2023-03-26T22:34:47.185Z,70.15
2023-03-26T22:39:47.237Z,70.26
2023-03-26T22:44:47.275Z,70.40
2023-03-26T22:49:46.950Z,70.41
2023-03-26T22:54:47.225Z,70.54
2023-03-26T22:59:47.054Z,70.56
2023-03-26T23:04:47.948Z,70.53
2023-03-26T23:09:47.125Z,70.71
2023-03-26T23:14:51.808Z,70.73
2023-03-26T23:19:47.022Z,70.73
2023-03-26T23:24:47.413Z,70.71
2023-03-26T23:29:47.203Z,70.60
2023-03-26T23:34:52.201Z,70.85
2023-03-26T23:39:47.465Z,70.66
2023-03-26T23:44:46.872Z,70.64
2023-03-26T23:49:46.907Z,70.57
2023-03-26T23:54:47.086Z,70.50
2023-03-26T23:59:48.358Z,70.75
